Hovedside
METAR-TAF:

METAR-TAF

Lufthavner :

Bodø lufthavn

Bodø, Norge

breddegrad: 67-16N, lengdegrad: 014-22E, høyde over havet: 1 m

Gjeldene værobservasjon

Denne rapporten ble laget for 29 minutter siden, klokken 17:20 UTC
Vind 12 kt fra Vest-sørvest
Temperatur 9°C
Luftfuktighet 81%
Trykk 1034 hPa
Sikt 10 km eller mer
Få skyer i en høyde av 1500 ft
Brutte skyer i en høyde av 4000 ft

METAR: ENBO 261720Z 24012KT 9999 FEW015 BKN040 09/06 Q1034 NOSIG

Tid: 19:49 (17:49 UTC)

Varsel

Varsel gyldig fra 26. klokken 12 UTC til 27. klokken 12 UTC
Vind 15 kt fra Vest-sørvest
Sikt 10 km eller mer
Få skyer i en høyde av 1000 ft
Spredte skyer i en høyde av 2500 ft

TAF: ENBO 2612/2712 24015KT 9999 FEW010 SCT025

Værobservasjoner og værvarsel for over 4000 flyplasser (METAR- og TAF-rapporter).

Tilgjengelige stasjoner er representert av de røde og gule prikkene på kartet.

Hold musepekeren over prikken for å se navnet på stasjonen.

Klikk så for å se værobservasjoner og -varsler.

For å forandre kartet kan du klikke på den grønne knappen med svart kryss for å zoome inn, på den grønne knappen med strek for å zoome ut, eller på de grønne pilene for å se tilstøtende kart.


METAR-TAF: